OMRK/RKT METAR and TAF weather

Enter ICAO airport designator
Station Type Date Time Source
OMRK METAR 2021/09/24 01:00 UTC NOAA

OMRK 240100Z 33002KT 5000 HZ NSC 27/24 Q1004 A2967


Station Type Date Time Source
OMRK Decoded METAR 2021/09/24 01:00 UTC NOAA

Ras Al Khaimah International Airport, United Arab Emirates (OMRK) 25-37N 055-56E 31M
Sep 23, 2021 - 09:00 PM EDT / 2021.09.24 0100 UTC
Wind: from the NNW (330 degrees) at 2 MPH (2 KT):0
Visibility: 3 mile(s):0
Weather: haze
Temperature: 80 F (27 C)
Dew Point: 75 F (24 C)
Relative Humidity: 83%
Pressure (altimeter): 29.67 in. Hg (1004 hPa)
ob: OMRK 240100Z 33002KT 5000 HZ NSC 27/24 Q1004 A2967
cycle: 1

Station Type Date Time Source
OMRK TAF 2021/09/23 18:28 UTC NOAA

TAF OMRK 231700Z 2318/2500 VRB02KT 8000 NSC
BECMG 2408/2410 36010KT
BECMG 2415/2417 VRB02KT

Example: see airport list